sensor_id;sensor_type;location;lat;lon;timestamp;temperature;humidity
11559;DHT22;5835;42.930;25.178;2023-04-29T00:02:13;3.90;99.90
11559;DHT22;5835;42.930;25.178;2023-04-29T00:04:41;3.80;99.90
11559;DHT22;5835;42.930;25.178;2023-04-29T00:07:10;3.90;99.90
11559;DHT22;5835;42.930;25.178;2023-04-29T00:09:40;3.90;99.90
11559;DHT22;5835;42.930;25.178;2023-04-29T00:12:10;3.60;99.90
11559;DHT22;5835;42.930;25.178;2023-04-29T00:14:37;3.40;99.90
11559;DHT22;5835;42.930;25.178;2023-04-29T00:17:04;3.20;99.90
11559;DHT22;5835;42.930;25.178;2023-04-29T00:19:32;3.30;99.90
11559;DHT22;5835;42.930;25.178;2023-04-29T00:22:00;3.30;99.90
11559;DHT22;5835;42.930;25.178;2023-04-29T00:24:29;3.40;99.90
11559;DHT22;5835;42.930;25.178;2023-04-29T00:26:57;3.50;99.90
11559;DHT22;5835;42.930;25.178;2023-04-29T00:29:24;3.50;99.90
11559;DHT22;5835;42.930;25.178;2023-04-29T00:31:52;3.50;99.90
11559;DHT22;5835;42.930;25.178;2023-04-29T00:34:20;3.40;99.90
11559;DHT22;5835;42.930;25.178;2023-04-29T00:36:48;3.40;99.90
11559;DHT22;5835;42.930;25.178;2023-04-29T00:39:15;3.40;99.90
11559;DHT22;5835;42.930;25.178;2023-04-29T00:41:44;3.40;99.90
11559;DHT22;5835;42.930;25.178;2023-04-29T00:44:12;3.50;99.90
11559;DHT22;5835;42.930;25.178;2023-04-29T00:46:40;3.40;99.90
11559;DHT22;5835;42.930;25.178;2023-04-29T00:49:07;3.40;99.90
11559;DHT22;5835;42.930;25.178;2023-04-29T00:51:37;3.50;99.90
11559;DHT22;5835;42.930;25.178;2023-04-29T00:54:06;3.40;99.90
11559;DHT22;5835;42.930;25.178;2023-04-29T00:56:35;3.40;99.90
11559;DHT22;5835;42.930;25.178;2023-04-29T00:59:05;3.40;99.90
11559;DHT22;5835;42.930;25.178;2023-04-29T01:01:35;3.40;99.90
11559;DHT22;5835;42.930;25.178;2023-04-29T01:04:04;3.40;99.90
11559;DHT22;5835;42.930;25.178;2023-04-29T01:06:40;3.40;99.90
11559;DHT22;5835;42.930;25.178;2023-04-29T01:09:28;3.40;99.90
11559;DHT22;5835;42.930;25.178;2023-04-29T01:12:10;3.40;99.90
11559;DHT22;5835;42.930;25.178;2023-04-29T01:14:47;3.40;99.90
11559;DHT22;5835;42.930;25.178;2023-04-29T01:17:17;3.40;99.90
11559;DHT22;5835;42.930;25.178;2023-04-29T01:19:49;3.40;99.90
11559;DHT22;5835;42.930;25.178;2023-04-29T01:22:16;3.30;99.90
11559;DHT22;5835;42.930;25.178;2023-04-29T01:24:46;3.30;99.90
11559;DHT22;5835;42.930;25.178;2023-04-29T01:27:23;3.30;99.90
11559;DHT22;5835;42.930;25.178;2023-04-29T01:30:01;3.30;99.90
11559;DHT22;5835;42.930;25.178;2023-04-29T01:32:44;3.30;99.90
11559;DHT22;5835;42.930;25.178;2023-04-29T01:35:31;3.30;99.90
11559;DHT22;5835;42.930;25.178;2023-04-29T01:38:16;3.30;99.90
11559;DHT22;5835;42.930;25.178;2023-04-29T01:40:59;3.20;99.90
11559;DHT22;5835;42.930;25.178;2023-04-29T01:43:30;3.20;99.90
11559;DHT22;5835;42.930;25.178;2023-04-29T01:45:59;3.20;99.90
11559;DHT22;5835;42.930;25.178;2023-04-29T01:48:29;3.30;99.90
11559;DHT22;5835;42.930;25.178;2023-04-29T01:50:57;3.30;99.90
11559;DHT22;5835;42.930;25.178;2023-04-29T01:53:24;3.40;99.90
11559;DHT22;5835;42.930;25.178;2023-04-29T01:55:53;3.40;99.90
11559;DHT22;5835;42.930;25.178;2023-04-29T01:58:21;3.40;99.90
11559;DHT22;5835;42.930;25.178;2023-04-29T02:00:48;3.40;99.90
11559;DHT22;5835;42.930;25.178;2023-04-29T02:03:16;3.40;99.90
11559;DHT22;5835;42.930;25.178;2023-04-29T02:05:43;3.10;99.90
11559;DHT22;5835;42.930;25.178;2023-04-29T02:08:11;2.80;99.90
11559;DHT22;5835;42.930;25.178;2023-04-29T02:10:38;2.50;99.90
11559;DHT22;5835;42.930;25.178;2023-04-29T02:13:07;2.30;99.90
11559;DHT22;5835;42.930;25.178;2023-04-29T02:15:36;2.20;99.90
11559;DHT22;5835;42.930;25.178;2023-04-29T02:18:04;2.10;99.90
11559;DHT22;5835;42.930;25.178;2023-04-29T02:20:31;2.10;99.90
11559;DHT22;5835;42.930;25.178;2023-04-29T02:22:59;2.10;99.90
11559;DHT22;5835;42.930;25.178;2023-04-29T02:25:27;2.00;99.90
11559;DHT22;5835;42.930;25.178;2023-04-29T02:27:54;2.10;99.90
11559;DHT22;5835;42.930;25.178;2023-04-29T02:30:23;2.30;99.90
11559;DHT22;5835;42.930;25.178;2023-04-29T02:32:50;2.40;99.90
11559;DHT22;5835;42.930;25.178;2023-04-29T02:35:19;2.40;99.90
11559;DHT22;5835;42.930;25.178;2023-04-29T02:37:47;2.50;99.90
11559;DHT22;5835;42.930;25.178;2023-04-29T02:40:14;2.50;99.90
11559;DHT22;5835;42.930;25.178;2023-04-29T02:42:42;2.60;99.90
11559;DHT22;5835;42.930;25.178;2023-04-29T02:45:10;2.80;99.90
11559;DHT22;5835;42.930;25.178;2023-04-29T02:47:39;2.70;99.90
11559;DHT22;5835;42.930;25.178;2023-04-29T02:50:07;2.60;99.90
11559;DHT22;5835;42.930;25.178;2023-04-29T02:52:35;2.80;99.90
11559;DHT22;5835;42.930;25.178;2023-04-29T02:55:04;2.70;99.90
11559;DHT22;5835;42.930;25.178;2023-04-29T02:57:31;2.60;99.90
11559;DHT22;5835;42.930;25.178;2023-04-29T02:59:59;2.60;99.90
11559;DHT22;5835;42.930;25.178;2023-04-29T03:02:28;2.60;99.90
11559;DHT22;5835;42.930;25.178;2023-04-29T03:04:57;2.70;99.90
11559;DHT22;5835;42.930;25.178;2023-04-29T03:07:25;2.70;99.90
11559;DHT22;5835;42.930;25.178;2023-04-29T03:09:53;2.60;99.90
11559;DHT22;5835;42.930;25.178;2023-04-29T03:12:21;2.50;99.90
11559;DHT22;5835;42.930;25.178;2023-04-29T03:14:48;2.40;99.90
11559;DHT22;5835;42.930;25.178;2023-04-29T03:17:17;2.20;99.90
11559;DHT22;5835;42.930;25.178;2023-04-29T03:19:47;2.20;99.90
11559;DHT22;5835;42.930;25.178;2023-04-29T03:22:17;2.40;99.90
11559;DHT22;5835;42.930;25.178;2023-04-29T03:24:45;2.30;99.90
11559;DHT22;5835;42.930;25.178;2023-04-29T03:27:12;2.30;99.90
11559;DHT22;5835;42.930;25.178;2023-04-29T03:29:40;2.40;99.90
11559;DHT22;5835;42.930;25.178;2023-04-29T03:32:08;2.60;99.90
11559;DHT22;5835;42.930;25.178;2023-04-29T03:34:35;2.70;99.90
11559;DHT22;5835;42.930;25.178;2023-04-29T03:37:03;2.80;99.90
11559;DHT22;5835;42.930;25.178;2023-04-29T03:39:32;2.60;99.90
11559;DHT22;5835;42.930;25.178;2023-04-29T03:42:00;2.50;99.90
11559;DHT22;5835;42.930;25.178;2023-04-29T03:44:28;2.60;99.90
11559;DHT22;5835;42.930;25.178;2023-04-29T03:46:55;2.60;99.90
11559;DHT22;5835;42.930;25.178;2023-04-29T03:49:23;2.60;99.90
11559;DHT22;5835;42.930;25.178;2023-04-29T03:51:50;2.60;99.90
11559;DHT22;5835;42.930;25.178;2023-04-29T03:54:21;2.70;99.90
11559;DHT22;5835;42.930;25.178;2023-04-29T03:56:50;2.80;99.90
11559;DHT22;5835;42.930;25.178;2023-04-29T03:59:17;3.10;99.90
11559;DHT22;5835;42.930;25.178;2023-04-29T04:01:45;3.00;99.90
11559;DHT22;5835;42.930;25.178;2023-04-29T04:04:15;3.00;99.90
11559;DHT22;5835;42.930;25.178;2023-04-29T04:06:43;3.00;99.90
11559;DHT22;5835;42.930;25.178;2023-04-29T04:09:16;3.20;99.90
11559;DHT22;5835;42.930;25.178;2023-04-29T04:11:44;3.60;99.90
11559;DHT22;5835;42.930;25.178;2023-04-29T04:14:13;3.80;99.90
11559;DHT22;5835;42.930;25.178;2023-04-29T04:16:41;3.60;99.90
11559;DHT22;5835;42.930;25.178;2023-04-29T04:19:08;3.50;99.90
11559;DHT22;5835;42.930;25.178;2023-04-29T04:21:36;3.50;99.90
11559;DHT22;5835;42.930;25.178;2023-04-29T04:24:04;3.40;99.90
11559;DHT22;5835;42.930;25.178;2023-04-29T04:26:31;3.40;99.90
11559;DHT22;5835;42.930;25.178;2023-04-29T04:28:59;3.40;99.90
11559;DHT22;5835;42.930;25.178;2023-04-29T04:31:28;3.40;99.90
11559;DHT22;5835;42.930;25.178;2023-04-29T04:33:56;3.60;99.90
11559;DHT22;5835;42.930;25.178;2023-04-29T04:36:24;3.90;99.90
11559;DHT22;5835;42.930;25.178;2023-04-29T04:38:52;4.20;99.90
11559;DHT22;5835;42.930;25.178;2023-04-29T04:41:19;4.40;99.90
11559;DHT22;5835;42.930;25.178;2023-04-29T04:43:46;4.60;99.90
11559;DHT22;5835;42.930;25.178;2023-04-29T04:46:14;4.60;99.90
11559;DHT22;5835;42.930;25.178;2023-04-29T04:48:44;4.50;99.90
11559;DHT22;5835;42.930;25.178;2023-04-29T04:51:12;4.50;99.90
11559;DHT22;5835;42.930;25.178;2023-04-29T04:53:40;4.50;99.90
11559;DHT22;5835;42.930;25.178;2023-04-29T04:56:08;4.40;99.90
11559;DHT22;5835;42.930;25.178;2023-04-29T04:58:35;4.40;99.90
11559;DHT22;5835;42.930;25.178;2023-04-29T05:01:03;4.40;99.90
11559;DHT22;5835;42.930;25.178;2023-04-29T05:03:30;4.50;99.90
11559;DHT22;5835;42.930;25.178;2023-04-29T05:05:59;4.50;99.90
11559;DHT22;5835;42.930;25.178;2023-04-29T05:08:29;4.70;99.90
11559;DHT22;5835;42.930;25.178;2023-04-29T05:10:57;5.00;99.90
11559;DHT22;5835;42.930;25.178;2023-04-29T05:13:24;5.30;99.90
11559;DHT22;5835;42.930;25.178;2023-04-29T05:15:52;5.40;99.90
11559;DHT22;5835;42.930;25.178;2023-04-29T05:18:19;5.60;99.90
11559;DHT22;5835;42.930;25.178;2023-04-29T05:20:46;5.90;99.90
11559;DHT22;5835;42.930;25.178;2023-04-29T05:23:15;6.00;99.90
11559;DHT22;5835;42.930;25.178;2023-04-29T05:25:42;6.00;97.40
11559;DHT22;5835;42.930;25.178;2023-04-29T05:28:10;6.20;99.90
11559;DHT22;5835;42.930;25.178;2023-04-29T05:30:37;6.50;99.90
11559;DHT22;5835;42.930;25.178;2023-04-29T05:33:05;6.30;25.50
11559;DHT22;5835;42.930;25.178;2023-04-29T05:35:32;6.40;75.60
11559;DHT22;5835;42.930;25.178;2023-04-29T05:38:03;6.30;61.30
11559;DHT22;5835;42.930;25.178;2023-04-29T05:40:31;6.20;46.20
11559;DHT22;5835;42.930;25.178;2023-04-29T05:42:59;6.10;52.50
11559;DHT22;5835;42.930;25.178;2023-04-29T05:45:26;6.00;65.50
11559;DHT22;5835;42.930;25.178;2023-04-29T05:47:54;6.00;38.50
11559;DHT22;5835;42.930;25.178;2023-04-29T05:50:21;5.90;56.50
11559;DHT22;5835;42.930;25.178;2023-04-29T05:52:49;6.00;88.60
11559;DHT22;5835;42.930;25.178;2023-04-29T05:55:16;6.00;55.20
11559;DHT22;5835;42.930;25.178;2023-04-29T05:57:47;6.00;91.80
11559;DHT22;5835;42.930;25.178;2023-04-29T06:00:15;6.10;99.90
11559;DHT22;5835;42.930;25.178;2023-04-29T06:02:42;6.10;99.90
11559;DHT22;5835;42.930;25.178;2023-04-29T06:05:10;6.30;99.90
11559;DHT22;5835;42.930;25.178;2023-04-29T06:07:40;6.40;92.10
11559;DHT22;5835;42.930;25.178;2023-04-29T06:10:08;6.50;99.90
11559;DHT22;5835;42.930;25.178;2023-04-29T06:12:36;6.60;99.90
11559;DHT22;5835;42.930;25.178;2023-04-29T06:15:06;6.60;99.90
11559;DHT22;5835;42.930;25.178;2023-04-29T06:17:34;6.70;99.90
11559;DHT22;5835;42.930;25.178;2023-04-29T06:20:01;6.80;99.90
11559;DHT22;5835;42.930;25.178;2023-04-29T06:22:29;6.90;99.90
11559;DHT22;5835;42.930;25.178;2023-04-29T06:24:56;6.80;99.90
11559;DHT22;5835;42.930;25.178;2023-04-29T06:27:24;6.70;99.90
11559;DHT22;5835;42.930;25.178;2023-04-29T06:29:51;6.80;99.90
11559;DHT22;5835;42.930;25.178;2023-04-29T06:32:20;7.00;99.90
11559;DHT22;5835;42.930;25.178;2023-04-29T06:34:48;7.00;99.90
11559;DHT22;5835;42.930;25.178;2023-04-29T06:37:16;7.20;99.90
11559;DHT22;5835;42.930;25.178;2023-04-29T06:39:43;7.30;99.80
11559;DHT22;5835;42.930;25.178;2023-04-29T06:42:11;7.60;99.90
11559;DHT22;5835;42.930;25.178;2023-04-29T06:44:39;7.90;99.90
11559;DHT22;5835;42.930;25.178;2023-04-29T06:47:06;8.10;71.90
11559;DHT22;5835;42.930;25.178;2023-04-29T06:49:35;8.20;21.40
11559;DHT22;5835;42.930;25.178;2023-04-29T06:52:05;8.50;10.90
11559;DHT22;5835;42.930;25.178;2023-04-29T06:54:32;8.70;1.00
11559;DHT22;5835;42.930;25.178;2023-04-29T06:56:59;9.20;1.00
11559;DHT22;5835;42.930;25.178;2023-04-29T06:59:27;9.50;1.00
11559;DHT22;5835;42.930;25.178;2023-04-29T07:01:54;9.70;1.00
11559;DHT22;5835;42.930;25.178;2023-04-29T07:04:22;9.80;1.00
11559;DHT22;5835;42.930;25.178;2023-04-29T07:06:51;10.00;1.00
11559;DHT22;5835;42.930;25.178;2023-04-29T07:09:19;10.30;71.10
11559;DHT22;5835;42.930;25.178;2023-04-29T07:11:48;10.80;1.00
11559;DHT22;5835;42.930;25.178;2023-04-29T07:14:16;11.10;1.00
11559;DHT22;5835;42.930;25.178;2023-04-29T07:16:43;11.40;1.00
11559;DHT22;5835;42.930;25.178;2023-04-29T07:19:11;11.40;99.90
11559;DHT22;5835;42.930;25.178;2023-04-29T07:21:38;11.40;1.00
11559;DHT22;5835;42.930;25.178;2023-04-29T07:24:07;11.40;1.00
11559;DHT22;5835;42.930;25.178;2023-04-29T07:26:35;11.50;91.80
11559;DHT22;5835;42.930;25.178;2023-04-29T07:29:02;11.60;1.00
11559;DHT22;5835;42.930;25.178;2023-04-29T07:31:30;11.80;99.90
11559;DHT22;5835;42.930;25.178;2023-04-29T07:33:58;12.00;1.00
11559;DHT22;5835;42.930;25.178;2023-04-29T07:36:25;12.00;1.00
11559;DHT22;5835;42.930;25.178;2023-04-29T07:38:53;12.30;1.00
11559;DHT22;5835;42.930;25.178;2023-04-29T07:41:22;12.30;99.90
11559;DHT22;5835;42.930;25.178;2023-04-29T07:43:50;12.50;1.00
11559;DHT22;5835;42.930;25.178;2023-04-29T07:46:17;12.70;92.50
11559;DHT22;5835;42.930;25.178;2023-04-29T07:48:45;12.80;1.00
11559;DHT22;5835;42.930;25.178;2023-04-29T07:51:13;13.30;1.00
11559;DHT22;5835;42.930;25.178;2023-04-29T07:53:41;13.60;99.90
11559;DHT22;5835;42.930;25.178;2023-04-29T07:56:08;13.60;99.90
11559;DHT22;5835;42.930;25.178;2023-04-29T07:58:37;13.90;99.90
11559;DHT22;5835;42.930;25.178;2023-04-29T08:01:05;14.00;99.90
11559;DHT22;5835;42.930;25.178;2023-04-29T08:03:33;13.80;99.90
11559;DHT22;5835;42.930;25.178;2023-04-29T08:06:01;14.10;1.00
11559;DHT22;5835;42.930;25.178;2023-04-29T08:08:29;14.30;1.00
11559;DHT22;5835;42.930;25.178;2023-04-29T08:10:57;14.60;1.00
11559;DHT22;5835;42.930;25.178;2023-04-29T08:13:25;14.60;1.00
11559;DHT22;5835;42.930;25.178;2023-04-29T08:15:54;14.60;1.00
11559;DHT22;5835;42.930;25.178;2023-04-29T08:18:21;15.00;1.00
11559;DHT22;5835;42.930;25.178;2023-04-29T08:20:49;15.30;1.00
11559;DHT22;5835;42.930;25.178;2023-04-29T08:23:16;15.30;1.00
11559;DHT22;5835;42.930;25.178;2023-04-29T08:25:44;15.30;1.00
11559;DHT22;5835;42.930;25.178;2023-04-29T08:28:12;15.20;1.00
11559;DHT22;5835;42.930;25.178;2023-04-29T08:30:39;15.60;1.00
11559;DHT22;5835;42.930;25.178;2023-04-29T08:33:08;16.00;1.00
11559;DHT22;5835;42.930;25.178;2023-04-29T08:35:37;15.70;1.00
11559;DHT22;5835;42.930;25.178;2023-04-29T08:38:05;15.40;1.00
11559;DHT22;5835;42.930;25.178;2023-04-29T08:40:37;15.60;1.00
11559;DHT22;5835;42.930;25.178;2023-04-29T08:43:07;15.80;1.00
11559;DHT22;5835;42.930;25.178;2023-04-29T08:45:36;15.80;1.00
11559;DHT22;5835;42.930;25.178;2023-04-29T08:48:06;15.90;1.00
11559;DHT22;5835;42.930;25.178;2023-04-29T08:50:37;16.30;1.00
11559;DHT22;5835;42.930;25.178;2023-04-29T08:53:05;16.40;1.00
11559;DHT22;5835;42.930;25.178;2023-04-29T08:55:35;16.40;1.00
11559;DHT22;5835;42.930;25.178;2023-04-29T08:58:02;16.00;1.00
11559;DHT22;5835;42.930;25.178;2023-04-29T09:00:31;15.90;1.00
11559;DHT22;5835;42.930;25.178;2023-04-29T09:03:00;15.90;1.00
11559;DHT22;5835;42.930;25.178;2023-04-29T09:05:34;16.60;1.00
11559;DHT22;5835;42.930;25.178;2023-04-29T09:08:04;16.50;1.00
11559;DHT22;5835;42.930;25.178;2023-04-29T09:10:32;16.80;1.00
11559;DHT22;5835;42.930;25.178;2023-04-29T09:12:59;16.80;1.00
11559;DHT22;5835;42.930;25.178;2023-04-29T09:15:27;16.70;1.00
11559;DHT22;5835;42.930;25.178;2023-04-29T09:17:55;16.90;1.00
11559;DHT22;5835;42.930;25.178;2023-04-29T09:20:26;16.70;1.00
11559;DHT22;5835;42.930;25.178;2023-04-29T09:22:56;16.90;1.00
11559;DHT22;5835;42.930;25.178;2023-04-29T09:25:24;17.00;1.00
11559;DHT22;5835;42.930;25.178;2023-04-29T09:27:53;17.10;1.00
11559;DHT22;5835;42.930;25.178;2023-04-29T09:30:23;17.20;1.00
11559;DHT22;5835;42.930;25.178;2023-04-29T09:33:05;17.30;1.00
11559;DHT22;5835;42.930;25.178;2023-04-29T09:35:33;17.00;1.00
11559;DHT22;5835;42.930;25.178;2023-04-29T09:38:13;17.10;1.00
11559;DHT22;5835;42.930;25.178;2023-04-29T09:40:42;17.30;1.00
11559;DHT22;5835;42.930;25.178;2023-04-29T09:43:13;17.30;1.00
11559;DHT22;5835;42.930;25.178;2023-04-29T09:45:44;17.20;1.00
11559;DHT22;5835;42.930;25.178;2023-04-29T09:48:13;17.50;1.00
11559;DHT22;5835;42.930;25.178;2023-04-29T09:50:42;17.60;1.00
11559;DHT22;5835;42.930;25.178;2023-04-29T09:53:11;17.40;1.00
11559;DHT22;5835;42.930;25.178;2023-04-29T09:56:01;17.80;1.00
11559;DHT22;5835;42.930;25.178;2023-04-29T09:58:29;17.80;1.00
11559;DHT22;5835;42.930;25.178;2023-04-29T10:01:02;17.60;1.00
11559;DHT22;5835;42.930;25.178;2023-04-29T10:03:32;17.80;1.00
11559;DHT22;5835;42.930;25.178;2023-04-29T10:06:01;17.90;1.00
11559;DHT22;5835;42.930;25.178;2023-04-29T10:08:31;19.00;1.00
11559;DHT22;5835;42.930;25.178;2023-04-29T10:11:00;18.80;1.00
11559;DHT22;5835;42.930;25.178;2023-04-29T10:13:28;19.10;1.00
11559;DHT22;5835;42.930;25.178;2023-04-29T10:16:01;19.60;1.00
11559;DHT22;5835;42.930;25.178;2023-04-29T10:18:35;18.90;1.00
11559;DHT22;5835;42.930;25.178;2023-04-29T10:21:06;17.90;1.00
11559;DHT22;5835;42.930;25.178;2023-04-29T10:23:35;18.10;1.00
11559;DHT22;5835;42.930;25.178;2023-04-29T10:26:05;18.40;1.00
11559;DHT22;5835;42.930;25.178;2023-04-29T10:28:34;19.90;1.00
11559;DHT22;5835;42.930;25.178;2023-04-29T10:31:04;20.70;1.00
11559;DHT22;5835;42.930;25.178;2023-04-29T10:33:35;19.80;1.00
11559;DHT22;5835;42.930;25.178;2023-04-29T10:36:03;19.00;1.00
11559;DHT22;5835;42.930;25.178;2023-04-29T10:38:45;18.60;1.00
11559;DHT22;5835;42.930;25.178;2023-04-29T10:41:20;18.50;1.00
11559;DHT22;5835;42.930;25.178;2023-04-29T10:43:51;18.30;1.00
11559;DHT22;5835;42.930;25.178;2023-04-29T10:46:19;18.80;1.00
11559;DHT22;5835;42.930;25.178;2023-04-29T10:48:48;18.80;1.00
11559;DHT22;5835;42.930;25.178;2023-04-29T10:51:31;19.10;1.00
11559;DHT22;5835;42.930;25.178;2023-04-29T10:54:07;19.00;1.00
11559;DHT22;5835;42.930;25.178;2023-04-29T10:56:36;18.90;1.00
11559;DHT22;5835;42.930;25.178;2023-04-29T10:59:04;19.10;1.00
11559;DHT22;5835;42.930;25.178;2023-04-29T11:01:45;19.60;1.00
11559;DHT22;5835;42.930;25.178;2023-04-29T11:04:13;19.60;1.00
11559;DHT22;5835;42.930;25.178;2023-04-29T11:06:44;18.90;1.00
11559;DHT22;5835;42.930;25.178;2023-04-29T11:09:17;18.70;1.00
11559;DHT22;5835;42.930;25.178;2023-04-29T11:11:47;18.80;1.00
11559;DHT22;5835;42.930;25.178;2023-04-29T11:14:22;19.00;1.00
11559;DHT22;5835;42.930;25.178;2023-04-29T11:16:55;19.30;1.00
11559;DHT22;5835;42.930;25.178;2023-04-29T11:19:25;19.30;1.00
11559;DHT22;5835;42.930;25.178;2023-04-29T11:22:11;19.00;1.00
11559;DHT22;5835;42.930;25.178;2023-04-29T11:24:51;19.80;1.00
11559;DHT22;5835;42.930;25.178;2023-04-29T11:27:20;19.80;1.00
11559;DHT22;5835;42.930;25.178;2023-04-29T11:29:51;19.30;1.00
11559;DHT22;5835;42.930;25.178;2023-04-29T11:32:21;19.30;1.00
11559;DHT22;5835;42.930;25.178;2023-04-29T11:34:50;18.60;1.00
11559;DHT22;5835;42.930;25.178;2023-04-29T11:37:21;18.40;1.00
11559;DHT22;5835;42.930;25.178;2023-04-29T11:39:50;18.20;1.00
11559;DHT22;5835;42.930;25.178;2023-04-29T11:42:19;18.40;1.00
11559;DHT22;5835;42.930;25.178;2023-04-29T11:44:51;18.10;1.00
11559;DHT22;5835;42.930;25.178;2023-04-29T11:47:19;18.90;1.00
11559;DHT22;5835;42.930;25.178;2023-04-29T11:49:47;19.20;1.00
11559;DHT22;5835;42.930;25.178;2023-04-29T11:52:15;19.00;1.00
11559;DHT22;5835;42.930;25.178;2023-04-29T11:54:42;19.00;1.00
11559;DHT22;5835;42.930;25.178;2023-04-29T11:57:13;19.70;99.90
11559;DHT22;5835;42.930;25.178;2023-04-29T11:59:42;19.90;1.00
11559;DHT22;5835;42.930;25.178;2023-04-29T12:02:11;20.20;99.90
11559;DHT22;5835;42.930;25.178;2023-04-29T12:04:52;20.30;99.90
11559;DHT22;5835;42.930;25.178;2023-04-29T12:07:19;21.70;99.90
11559;DHT22;5835;42.930;25.178;2023-04-29T12:09:47;21.70;99.90
11559;DHT22;5835;42.930;25.178;2023-04-29T12:12:16;21.90;99.90
11559;DHT22;5835;42.930;25.178;2023-04-29T12:14:44;21.80;1.00
11559;DHT22;5835;42.930;25.178;2023-04-29T12:17:12;20.60;99.90
11559;DHT22;5835;42.930;25.178;2023-04-29T12:19:39;20.50;99.90
11559;DHT22;5835;42.930;25.178;2023-04-29T12:22:09;19.80;99.90
11559;DHT22;5835;42.930;25.178;2023-04-29T12:24:38;20.10;99.90
11559;DHT22;5835;42.930;25.178;2023-04-29T12:27:08;20.30;99.90
11559;DHT22;5835;42.930;25.178;2023-04-29T12:29:38;19.80;99.90
11559;DHT22;5835;42.930;25.178;2023-04-29T12:32:06;19.60;99.90
11559;DHT22;5835;42.930;25.178;2023-04-29T12:34:38;20.00;99.90
11559;DHT22;5835;42.930;25.178;2023-04-29T12:37:06;19.70;99.90
11559;DHT22;5835;42.930;25.178;2023-04-29T12:39:38;20.20;99.90
11559;DHT22;5835;42.930;25.178;2023-04-29T12:42:06;19.60;99.90
11559;DHT22;5835;42.930;25.178;2023-04-29T12:44:44;20.10;99.90
11559;DHT22;5835;42.930;25.178;2023-04-29T12:47:12;20.30;99.90
11559;DHT22;5835;42.930;25.178;2023-04-29T12:49:41;21.20;99.90
11559;DHT22;5835;42.930;25.178;2023-04-29T12:52:09;20.70;99.90
11559;DHT22;5835;42.930;25.178;2023-04-29T12:54:38;20.50;99.90
11559;DHT22;5835;42.930;25.178;2023-04-29T12:57:08;20.10;99.90
11559;DHT22;5835;42.930;25.178;2023-04-29T12:59:35;19.60;99.90
11559;DHT22;5835;42.930;25.178;2023-04-29T13:02:04;20.00;99.90
11559;DHT22;5835;42.930;25.178;2023-04-29T13:04:32;20.40;99.90
11559;DHT22;5835;42.930;25.178;2023-04-29T13:06:59;20.60;99.90
11559;DHT22;5835;42.930;25.178;2023-04-29T13:09:29;20.00;99.90
11559;DHT22;5835;42.930;25.178;2023-04-29T13:11:56;19.70;99.90
11559;DHT22;5835;42.930;25.178;2023-04-29T13:14:24;19.90;99.90
11559;DHT22;5835;42.930;25.178;2023-04-29T13:16:52;19.70;99.90
11559;DHT22;5835;42.930;25.178;2023-04-29T13:19:21;19.80;99.90
11559;DHT22;5835;42.930;25.178;2023-04-29T13:21:48;20.00;99.90
11559;DHT22;5835;42.930;25.178;2023-04-29T13:24:16;20.30;99.90
11559;DHT22;5835;42.930;25.178;2023-04-29T13:26:44;20.50;99.90
11559;DHT22;5835;42.930;25.178;2023-04-29T13:29:15;20.30;99.90
11559;DHT22;5835;42.930;25.178;2023-04-29T13:31:43;20.10;99.90
11559;DHT22;5835;42.930;25.178;2023-04-29T13:34:10;19.90;99.90
11559;DHT22;5835;42.930;25.178;2023-04-29T13:36:39;19.70;99.90
11559;DHT22;5835;42.930;25.178;2023-04-29T13:39:07;19.60;99.90
11559;DHT22;5835;42.930;25.178;2023-04-29T13:41:35;19.60;99.90
11559;DHT22;5835;42.930;25.178;2023-04-29T13:44:03;19.20;99.90
11559;DHT22;5835;42.930;25.178;2023-04-29T13:46:31;19.40;99.90
11559;DHT22;5835;42.930;25.178;2023-04-29T13:48:59;19.00;99.90
11559;DHT22;5835;42.930;25.178;2023-04-29T13:51:27;18.60;99.90
11559;DHT22;5835;42.930;25.178;2023-04-29T13:53:56;18.50;99.90
11559;DHT22;5835;42.930;25.178;2023-04-29T13:56:24;18.70;99.90
11559;DHT22;5835;42.930;25.178;2023-04-29T13:58:51;18.70;99.90
11559;DHT22;5835;42.930;25.178;2023-04-29T14:01:19;18.80;99.90
11559;DHT22;5835;42.930;25.178;2023-04-29T14:03:47;18.60;99.90
11559;DHT22;5835;42.930;25.178;2023-04-29T14:06:15;18.40;99.90
11559;DHT22;5835;42.930;25.178;2023-04-29T14:08:43;18.40;99.90
11559;DHT22;5835;42.930;25.178;2023-04-29T14:11:12;18.20;99.90
11559;DHT22;5835;42.930;25.178;2023-04-29T14:13:41;18.50;99.90
11559;DHT22;5835;42.930;25.178;2023-04-29T14:16:08;18.80;99.90
11559;DHT22;5835;42.930;25.178;2023-04-29T14:18:36;19.10;99.90
11559;DHT22;5835;42.930;25.178;2023-04-29T14:21:04;19.30;99.90
11559;DHT22;5835;42.930;25.178;2023-04-29T14:23:32;19.00;99.90
11559;DHT22;5835;42.930;25.178;2023-04-29T14:26:00;19.00;99.90
11559;DHT22;5835;42.930;25.178;2023-04-29T14:28:29;18.90;99.90
11559;DHT22;5835;42.930;25.178;2023-04-29T14:30:57;18.70;99.90
11559;DHT22;5835;42.930;25.178;2023-04-29T14:33:24;18.60;99.90
11559;DHT22;5835;42.930;25.178;2023-04-29T14:35:52;18.40;99.90
11559;DHT22;5835;42.930;25.178;2023-04-29T14:38:20;18.10;99.90
11559;DHT22;5835;42.930;25.178;2023-04-29T14:40:47;18.20;99.90
11559;DHT22;5835;42.930;25.178;2023-04-29T14:43:15;17.70;99.90
11559;DHT22;5835;42.930;25.178;2023-04-29T14:45:44;18.10;99.90
11559;DHT22;5835;42.930;25.178;2023-04-29T14:48:12;17.90;99.90
11559;DHT22;5835;42.930;25.178;2023-04-29T14:50:39;18.20;99.90
11559;DHT22;5835;42.930;25.178;2023-04-29T14:53:07;18.30;99.90
11559;DHT22;5835;42.930;25.178;2023-04-29T14:55:35;18.00;99.90
11559;DHT22;5835;42.930;25.178;2023-04-29T14:58:03;17.80;99.90
11559;DHT22;5835;42.930;25.178;2023-04-29T15:00:30;17.40;99.90
11559;DHT22;5835;42.930;25.178;2023-04-29T15:02:59;17.40;99.90
11559;DHT22;5835;42.930;25.178;2023-04-29T15:05:27;17.20;99.90
11559;DHT22;5835;42.930;25.178;2023-04-29T15:07:55;17.00;1.00
11559;DHT22;5835;42.930;25.178;2023-04-29T15:10:25;16.70;99.90
11559;DHT22;5835;42.930;25.178;2023-04-29T15:12:52;16.50;99.90
11559;DHT22;5835;42.930;25.178;2023-04-29T15:15:20;16.50;99.90
11559;DHT22;5835;42.930;25.178;2023-04-29T15:17:48;16.60;99.90
11559;DHT22;5835;42.930;25.178;2023-04-29T15:20:17;16.50;99.90
11559;DHT22;5835;42.930;25.178;2023-04-29T15:22:47;16.40;99.90
11559;DHT22;5835;42.930;25.178;2023-04-29T15:25:14;16.60;99.90
11559;DHT22;5835;42.930;25.178;2023-04-29T15:27:42;16.80;1.00
11559;DHT22;5835;42.930;25.178;2023-04-29T15:30:11;16.70;1.00
11559;DHT22;5835;42.930;25.178;2023-04-29T15:32:38;16.80;1.00
11559;DHT22;5835;42.930;25.178;2023-04-29T15:35:06;16.80;1.00
11559;DHT22;5835;42.930;25.178;2023-04-29T15:37:35;16.70;1.00
11559;DHT22;5835;42.930;25.178;2023-04-29T15:40:03;16.70;1.00
11559;DHT22;5835;42.930;25.178;2023-04-29T15:42:34;16.50;1.00
11559;DHT22;5835;42.930;25.178;2023-04-29T15:45:02;16.50;1.00
11559;DHT22;5835;42.930;25.178;2023-04-29T15:47:29;16.60;1.00
11559;DHT22;5835;42.930;25.178;2023-04-29T15:49:57;16.40;1.00
11559;DHT22;5835;42.930;25.178;2023-04-29T15:52:24;16.30;1.00
11559;DHT22;5835;42.930;25.178;2023-04-29T15:54:53;16.30;1.00